sensor_id;sensor_type;location;lat;lon;timestamp;P1;durP1;ratioP1;P2;durP2;ratioP2
57395;SDS011;43222;52.912;6.940;2023-09-07T00:00:36;8.10;;;4.20;;
57395;SDS011;43222;52.912;6.940;2023-09-07T00:03:02;6.65;;;3.97;;
57395;SDS011;43222;52.912;6.940;2023-09-07T00:05:29;7.78;;;4.30;;
57395;SDS011;43222;52.912;6.940;2023-09-07T00:07:55;7.75;;;4.28;;
57395;SDS011;43222;52.912;6.940;2023-09-07T00:10:21;8.18;;;4.07;;
57395;SDS011;43222;52.912;6.940;2023-09-07T00:12:47;7.90;;;4.35;;
57395;SDS011;43222;52.912;6.940;2023-09-07T00:15:13;9.57;;;4.50;;
57395;SDS011;43222;52.912;6.940;2023-09-07T00:17:39;8.88;;;4.53;;
57395;SDS011;43222;52.912;6.940;2023-09-07T00:20:06;6.32;;;4.30;;
57395;SDS011;43222;52.912;6.940;2023-09-07T00:22:41;6.22;;;4.18;;
57395;SDS011;43222;52.912;6.940;2023-09-07T00:25:07;8.02;;;4.45;;
57395;SDS011;43222;52.912;6.940;2023-09-07T00:27:34;8.13;;;4.20;;
57395;SDS011;43222;52.912;6.940;2023-09-07T00:30:00;11.02;;;4.15;;
57395;SDS011;43222;52.912;6.940;2023-09-07T00:32:27;6.97;;;3.92;;
57395;SDS011;43222;52.912;6.940;2023-09-07T00:34:53;7.22;;;4.10;;
57395;SDS011;43222;52.912;6.940;2023-09-07T00:37:19;11.57;;;4.78;;
57395;SDS011;43222;52.912;6.940;2023-09-07T00:39:45;6.57;;;4.28;;
57395;SDS011;43222;52.912;6.940;2023-09-07T00:42:11;9.40;;;4.65;;
57395;SDS011;43222;52.912;6.940;2023-09-07T00:44:37;7.93;;;4.38;;
57395;SDS011;43222;52.912;6.940;2023-09-07T00:47:03;7.72;;;4.47;;
57395;SDS011;43222;52.912;6.940;2023-09-07T00:49:30;8.38;;;4.45;;
57395;SDS011;43222;52.912;6.940;2023-09-07T00:51:56;9.18;;;4.47;;
57395;SDS011;43222;52.912;6.940;2023-09-07T00:54:22;10.35;;;4.38;;
57395;SDS011;43222;52.912;6.940;2023-09-07T00:56:48;8.50;;;4.50;;
57395;SDS011;43222;52.912;6.940;2023-09-07T00:59:15;7.35;;;4.40;;
57395;SDS011;43222;52.912;6.940;2023-09-07T01:01:41;7.43;;;4.60;;
57395;SDS011;43222;52.912;6.940;2023-09-07T01:04:08;9.23;;;4.35;;
57395;SDS011;43222;52.912;6.940;2023-09-07T01:06:43;9.75;;;4.68;;
57395;SDS011;43222;52.912;6.940;2023-09-07T01:09:11;6.43;;;4.03;;
57395;SDS011;43222;52.912;6.940;2023-09-07T01:11:40;10.75;;;4.53;;
57395;SDS011;43222;52.912;6.940;2023-09-07T01:14:06;9.80;;;4.70;;
57395;SDS011;43222;52.912;6.940;2023-09-07T01:16:32;10.48;;;4.72;;
57395;SDS011;43222;52.912;6.940;2023-09-07T01:19:00;9.35;;;5.00;;
57395;SDS011;43222;52.912;6.940;2023-09-07T01:21:27;7.88;;;4.70;;
57395;SDS011;43222;52.912;6.940;2023-09-07T01:23:53;8.27;;;4.60;;
57395;SDS011;43222;52.912;6.940;2023-09-07T01:26:20;7.22;;;4.60;;
57395;SDS011;43222;52.912;6.940;2023-09-07T01:28:46;7.03;;;4.60;;
57395;SDS011;43222;52.912;6.940;2023-09-07T01:31:12;8.63;;;4.55;;
57395;SDS011;43222;52.912;6.940;2023-09-07T01:33:38;8.73;;;5.00;;
57395;SDS011;43222;52.912;6.940;2023-09-07T01:36:04;10.63;;;4.80;;
57395;SDS011;43222;52.912;6.940;2023-09-07T01:38:30;8.55;;;4.80;;
57395;SDS011;43222;52.912;6.940;2023-09-07T01:40:56;8.32;;;4.63;;
57395;SDS011;43222;52.912;6.940;2023-09-07T01:43:22;8.35;;;5.07;;
57395;SDS011;43222;52.912;6.940;2023-09-07T01:45:48;8.32;;;4.60;;
57395;SDS011;43222;52.912;6.940;2023-09-07T01:48:14;6.63;;;4.80;;
57395;SDS011;43222;52.912;6.940;2023-09-07T01:50:41;7.05;;;4.93;;
57395;SDS011;43222;52.912;6.940;2023-09-07T01:53:07;8.63;;;4.75;;
57395;SDS011;43222;52.912;6.940;2023-09-07T01:55:33;10.70;;;5.25;;
57395;SDS011;43222;52.912;6.940;2023-09-07T01:57:59;8.93;;;4.82;;
57395;SDS011;43222;52.912;6.940;2023-09-07T02:00:25;7.32;;;5.03;;
57395;SDS011;43222;52.912;6.940;2023-09-07T02:02:51;9.57;;;4.70;;
57395;SDS011;43222;52.912;6.940;2023-09-07T02:05:17;8.02;;;5.00;;
57395;SDS011;43222;52.912;6.940;2023-09-07T02:07:43;7.28;;;4.75;;
57395;SDS011;43222;52.912;6.940;2023-09-07T02:10:10;8.23;;;4.85;;
57395;SDS011;43222;52.912;6.940;2023-09-07T02:12:36;11.02;;;5.25;;
57395;SDS011;43222;52.912;6.940;2023-09-07T02:15:03;11.27;;;4.88;;
57395;SDS011;43222;52.912;6.940;2023-09-07T02:17:29;9.25;;;5.10;;
57395;SDS011;43222;52.912;6.940;2023-09-07T02:19:55;9.07;;;4.90;;
57395;SDS011;43222;52.912;6.940;2023-09-07T02:22:21;9.52;;;5.22;;
57395;SDS011;43222;52.912;6.940;2023-09-07T02:24:48;8.75;;;5.20;;
57395;SDS011;43222;52.912;6.940;2023-09-07T02:27:14;10.60;;;5.00;;
57395;SDS011;43222;52.912;6.940;2023-09-07T02:29:40;7.35;;;5.28;;
57395;SDS011;43222;52.912;6.940;2023-09-07T02:32:06;7.32;;;5.30;;
57395;SDS011;43222;52.912;6.940;2023-09-07T02:34:32;8.10;;;5.13;;
57395;SDS011;43222;52.912;6.940;2023-09-07T02:37:01;10.13;;;5.13;;
57395;SDS011;43222;52.912;6.940;2023-09-07T02:39:27;9.23;;;4.85;;
57395;SDS011;43222;52.912;6.940;2023-09-07T02:41:53;8.57;;;5.13;;
57395;SDS011;43222;52.912;6.940;2023-09-07T02:44:19;9.40;;;5.07;;
57395;SDS011;43222;52.912;6.940;2023-09-07T02:46:46;9.45;;;5.70;;
57395;SDS011;43222;52.912;6.940;2023-09-07T02:49:12;9.32;;;5.30;;
57395;SDS011;43222;52.912;6.940;2023-09-07T02:51:38;7.63;;;5.22;;
57395;SDS011;43222;52.912;6.940;2023-09-07T02:54:04;9.95;;;5.60;;
57395;SDS011;43222;52.912;6.940;2023-09-07T02:56:30;10.32;;;5.40;;
57395;SDS011;43222;52.912;6.940;2023-09-07T02:58:56;9.02;;;5.32;;
57395;SDS011;43222;52.912;6.940;2023-09-07T03:01:23;9.50;;;5.25;;
57395;SDS011;43222;52.912;6.940;2023-09-07T03:03:49;9.85;;;5.53;;
57395;SDS011;43222;52.912;6.940;2023-09-07T03:06:15;6.72;;;5.50;;
57395;SDS011;43222;52.912;6.940;2023-09-07T03:08:42;7.65;;;5.20;;
57395;SDS011;43222;52.912;6.940;2023-09-07T03:11:08;12.82;;;5.82;;
57395;SDS011;43222;52.912;6.940;2023-09-07T03:13:35;8.18;;;5.55;;
57395;SDS011;43222;52.912;6.940;2023-09-07T03:16:02;8.45;;;5.70;;
57395;SDS011;43222;52.912;6.940;2023-09-07T03:18:28;8.63;;;5.40;;
57395;SDS011;43222;52.912;6.940;2023-09-07T03:20:58;7.72;;;5.85;;
57395;SDS011;43222;52.912;6.940;2023-09-07T03:23:24;9.40;;;5.75;;
57395;SDS011;43222;52.912;6.940;2023-09-07T03:25:51;11.38;;;6.15;;
57395;SDS011;43222;52.912;6.940;2023-09-07T03:28:17;10.02;;;6.90;;
57395;SDS011;43222;52.912;6.940;2023-09-07T03:30:43;13.70;;;5.97;;
57395;SDS011;43222;52.912;6.940;2023-09-07T03:33:09;10.30;;;6.43;;
57395;SDS011;43222;52.912;6.940;2023-09-07T03:35:35;11.23;;;6.30;;
57395;SDS011;43222;52.912;6.940;2023-09-07T03:38:02;9.70;;;6.13;;
57395;SDS011;43222;52.912;6.940;2023-09-07T03:40:28;8.05;;;5.82;;
57395;SDS011;43222;52.912;6.940;2023-09-07T03:42:54;7.82;;;5.85;;
57395;SDS011;43222;52.912;6.940;2023-09-07T03:45:20;9.88;;;6.57;;
57395;SDS011;43222;52.912;6.940;2023-09-07T03:47:47;9.90;;;7.03;;
57395;SDS011;43222;52.912;6.940;2023-09-07T03:50:13;9.75;;;6.85;;
57395;SDS011;43222;52.912;6.940;2023-09-07T03:52:39;10.43;;;6.20;;
57395;SDS011;43222;52.912;6.940;2023-09-07T03:55:05;9.07;;;6.68;;
57395;SDS011;43222;52.912;6.940;2023-09-07T03:57:31;9.57;;;6.00;;
57395;SDS011;43222;52.912;6.940;2023-09-07T03:59:57;10.50;;;6.50;;
57395;SDS011;43222;52.912;6.940;2023-09-07T04:02:24;10.90;;;6.93;;
57395;SDS011;43222;52.912;6.940;2023-09-07T04:04:51;11.57;;;5.93;;
57395;SDS011;43222;52.912;6.940;2023-09-07T04:07:17;10.27;;;6.95;;
57395;SDS011;43222;52.912;6.940;2023-09-07T04:09:44;9.65;;;7.00;;
57395;SDS011;43222;52.912;6.940;2023-09-07T04:12:10;13.27;;;6.95;;
57395;SDS011;43222;52.912;6.940;2023-09-07T04:14:36;9.27;;;6.50;;
57395;SDS011;43222;52.912;6.940;2023-09-07T04:17:03;9.00;;;7.05;;
57395;SDS011;43222;52.912;6.940;2023-09-07T04:19:29;9.10;;;6.65;;
57395;SDS011;43222;52.912;6.940;2023-09-07T04:21:56;11.23;;;7.40;;
57395;SDS011;43222;52.912;6.940;2023-09-07T04:24:26;9.53;;;6.97;;
57395;SDS011;43222;52.912;6.940;2023-09-07T04:26:58;9.70;;;7.10;;
57395;SDS011;43222;52.912;6.940;2023-09-07T04:29:25;9.77;;;7.07;;
57395;SDS011;43222;52.912;6.940;2023-09-07T04:31:52;8.82;;;6.63;;
57395;SDS011;43222;52.912;6.940;2023-09-07T04:34:18;9.57;;;6.85;;
57395;SDS011;43222;52.912;6.940;2023-09-07T04:36:44;8.68;;;6.75;;
57395;SDS011;43222;52.912;6.940;2023-09-07T04:39:10;9.82;;;7.13;;
57395;SDS011;43222;52.912;6.940;2023-09-07T04:41:39;11.10;;;7.20;;
57395;SDS011;43222;52.912;6.940;2023-09-07T04:44:08;10.02;;;7.45;;
57395;SDS011;43222;52.912;6.940;2023-09-07T04:46:34;9.63;;;7.15;;
57395;SDS011;43222;52.912;6.940;2023-09-07T04:49:00;9.15;;;7.35;;
57395;SDS011;43222;52.912;6.940;2023-09-07T04:51:26;9.85;;;6.78;;
57395;SDS011;43222;52.912;6.940;2023-09-07T04:53:52;10.52;;;7.60;;
57395;SDS011;43222;52.912;6.940;2023-09-07T04:56:18;10.20;;;6.93;;
57395;SDS011;43222;52.912;6.940;2023-09-07T04:58:46;11.82;;;7.70;;
57395;SDS011;43222;52.912;6.940;2023-09-07T05:01:12;10.00;;;7.05;;
57395;SDS011;43222;52.912;6.940;2023-09-07T05:03:38;10.18;;;7.22;;
57395;SDS011;43222;52.912;6.940;2023-09-07T05:06:05;11.38;;;8.05;;
57395;SDS011;43222;52.912;6.940;2023-09-07T05:08:31;10.30;;;6.97;;
57395;SDS011;43222;52.912;6.940;2023-09-07T05:10:58;10.05;;;7.80;;
57395;SDS011;43222;52.912;6.940;2023-09-07T05:13:25;12.13;;;7.95;;
57395;SDS011;43222;52.912;6.940;2023-09-07T05:15:51;8.93;;;8.00;;
57395;SDS011;43222;52.912;6.940;2023-09-07T05:18:18;11.32;;;6.88;;
57395;SDS011;43222;52.912;6.940;2023-09-07T05:20:44;10.15;;;7.78;;
57395;SDS011;43222;52.912;6.940;2023-09-07T05:23:13;10.25;;;7.82;;
57395;SDS011;43222;52.912;6.940;2023-09-07T05:25:50;12.27;;;7.90;;
57395;SDS011;43222;52.912;6.940;2023-09-07T05:28:17;9.50;;;7.95;;
57395;SDS011;43222;52.912;6.940;2023-09-07T05:30:43;11.35;;;7.88;;
57395;SDS011;43222;52.912;6.940;2023-09-07T05:33:10;12.90;;;8.32;;
57395;SDS011;43222;52.912;6.940;2023-09-07T05:35:36;13.98;;;8.18;;
57395;SDS011;43222;52.912;6.940;2023-09-07T05:38:03;9.10;;;7.80;;
57395;SDS011;43222;52.912;6.940;2023-09-07T05:40:33;13.20;;;7.40;;
57395;SDS011;43222;52.912;6.940;2023-09-07T05:42:59;9.93;;;7.40;;
57395;SDS011;43222;52.912;6.940;2023-09-07T05:45:25;13.45;;;6.63;;
57395;SDS011;43222;52.912;6.940;2023-09-07T05:47:51;17.58;;;7.47;;
57395;SDS011;43222;52.912;6.940;2023-09-07T05:50:17;14.55;;;7.28;;
57395;SDS011;43222;52.912;6.940;2023-09-07T05:52:43;11.88;;;6.72;;
57395;SDS011;43222;52.912;6.940;2023-09-07T05:55:09;11.38;;;6.70;;
57395;SDS011;43222;52.912;6.940;2023-09-07T05:57:35;11.88;;;6.90;;
57395;SDS011;43222;52.912;6.940;2023-09-07T06:00:02;12.15;;;6.32;;
57395;SDS011;43222;52.912;6.940;2023-09-07T06:02:29;10.95;;;6.60;;
57395;SDS011;43222;52.912;6.940;2023-09-07T06:04:55;12.18;;;6.65;;
57395;SDS011;43222;52.912;6.940;2023-09-07T06:07:21;12.23;;;7.60;;
57395;SDS011;43222;52.912;6.940;2023-09-07T06:09:47;13.10;;;6.78;;
57395;SDS011;43222;52.912;6.940;2023-09-07T06:12:13;12.02;;;6.22;;
57395;SDS011;43222;52.912;6.940;2023-09-07T06:14:40;10.43;;;6.47;;
57395;SDS011;43222;52.912;6.940;2023-09-07T06:17:05;12.07;;;6.18;;
57395;SDS011;43222;52.912;6.940;2023-09-07T06:19:32;16.60;;;6.10;;
57395;SDS011;43222;52.912;6.940;2023-09-07T06:21:58;16.52;;;6.47;;
57395;SDS011;43222;52.912;6.940;2023-09-07T06:24:25;28.73;;;7.32;;
57395;SDS011;43222;52.912;6.940;2023-09-07T06:26:51;12.68;;;6.63;;
57395;SDS011;43222;52.912;6.940;2023-09-07T06:29:17;9.73;;;6.32;;
57395;SDS011;43222;52.912;6.940;2023-09-07T06:31:43;12.35;;;6.47;;
57395;SDS011;43222;52.912;6.940;2023-09-07T06:34:09;11.70;;;6.45;;
57395;SDS011;43222;52.912;6.940;2023-09-07T06:36:35;21.95;;;6.25;;
57395;SDS011;43222;52.912;6.940;2023-09-07T06:39:01;11.60;;;6.47;;
57395;SDS011;43222;52.912;6.940;2023-09-07T06:41:28;13.00;;;6.43;;
57395;SDS011;43222;52.912;6.940;2023-09-07T06:43:54;10.80;;;6.10;;
57395;SDS011;43222;52.912;6.940;2023-09-07T06:46:20;11.88;;;6.13;;
57395;SDS011;43222;52.912;6.940;2023-09-07T06:48:46;10.68;;;5.65;;
57395;SDS011;43222;52.912;6.940;2023-09-07T06:51:13;9.07;;;6.07;;
57395;SDS011;43222;52.912;6.940;2023-09-07T06:53:39;8.38;;;5.82;;
57395;SDS011;43222;52.912;6.940;2023-09-07T06:56:06;16.98;;;6.90;;
57395;SDS011;43222;52.912;6.940;2023-09-07T06:58:32;16.80;;;6.60;;
57395;SDS011;43222;52.912;6.940;2023-09-07T07:00:59;11.43;;;5.93;;
57395;SDS011;43222;52.912;6.940;2023-09-07T07:03:29;18.25;;;6.60;;
57395;SDS011;43222;52.912;6.940;2023-09-07T07:05:56;21.48;;;7.28;;
57395;SDS011;43222;52.912;6.940;2023-09-07T07:08:22;16.67;;;6.45;;
57395;SDS011;43222;52.912;6.940;2023-09-07T07:10:49;10.55;;;6.57;;
57395;SDS011;43222;52.912;6.940;2023-09-07T07:13:15;9.68;;;6.07;;
57395;SDS011;43222;52.912;6.940;2023-09-07T07:15:41;15.27;;;6.63;;
57395;SDS011;43222;52.912;6.940;2023-09-07T07:18:07;16.98;;;6.40;;
57395;SDS011;43222;52.912;6.940;2023-09-07T07:20:37;15.40;;;7.75;;
57395;SDS011;43222;52.912;6.940;2023-09-07T07:23:04;13.80;;;6.63;;
57395;SDS011;43222;52.912;6.940;2023-09-07T07:25:33;10.48;;;6.80;;
57395;SDS011;43222;52.912;6.940;2023-09-07T07:28:00;11.80;;;5.65;;
57395;SDS011;43222;52.912;6.940;2023-09-07T07:30:28;9.60;;;5.95;;
57395;SDS011;43222;52.912;6.940;2023-09-07T07:32:55;11.60;;;6.28;;
57395;SDS011;43222;52.912;6.940;2023-09-07T07:35:21;9.57;;;6.25;;
57395;SDS011;43222;52.912;6.940;2023-09-07T07:37:48;11.90;;;6.40;;
57395;SDS011;43222;52.912;6.940;2023-09-07T07:40:14;8.90;;;6.22;;
57395;SDS011;43222;52.912;6.940;2023-09-07T07:42:40;8.05;;;6.25;;
57395;SDS011;43222;52.912;6.940;2023-09-07T07:45:07;7.72;;;6.00;;
57395;SDS011;43222;52.912;6.940;2023-09-07T07:47:33;11.38;;;6.45;;
57395;SDS011;43222;52.912;6.940;2023-09-07T07:49:59;14.98;;;6.70;;
57395;SDS011;43222;52.912;6.940;2023-09-07T07:52:25;9.73;;;5.88;;
57395;SDS011;43222;52.912;6.940;2023-09-07T07:54:51;11.25;;;6.68;;
57395;SDS011;43222;52.912;6.940;2023-09-07T07:57:17;10.52;;;6.30;;
57395;SDS011;43222;52.912;6.940;2023-09-07T07:59:43;9.70;;;6.10;;
57395;SDS011;43222;52.912;6.940;2023-09-07T08:02:09;10.02;;;6.72;;
57395;SDS011;43222;52.912;6.940;2023-09-07T08:04:36;9.75;;;6.10;;
57395;SDS011;43222;52.912;6.940;2023-09-07T08:07:02;8.35;;;6.47;;
57395;SDS011;43222;52.912;6.940;2023-09-07T08:09:33;9.63;;;5.97;;
57395;SDS011;43222;52.912;6.940;2023-09-07T08:11:59;8.88;;;6.25;;
57395;SDS011;43222;52.912;6.940;2023-09-07T08:14:28;9.65;;;6.30;;
57395;SDS011;43222;52.912;6.940;2023-09-07T08:16:54;14.18;;;6.60;;
57395;SDS011;43222;52.912;6.940;2023-09-07T08:19:20;10.52;;;6.70;;
57395;SDS011;43222;52.912;6.940;2023-09-07T08:21:46;9.07;;;6.70;;
57395;SDS011;43222;52.912;6.940;2023-09-07T08:24:12;9.70;;;6.43;;
57395;SDS011;43222;52.912;6.940;2023-09-07T08:26:38;7.90;;;6.35;;
57395;SDS011;43222;52.912;6.940;2023-09-07T08:29:04;7.93;;;5.53;;
57395;SDS011;43222;52.912;6.940;2023-09-07T08:31:31;9.52;;;5.90;;
57395;SDS011;43222;52.912;6.940;2023-09-07T08:34:02;10.95;;;6.30;;
57395;SDS011;43222;52.912;6.940;2023-09-07T08:36:29;8.20;;;5.80;;
57395;SDS011;43222;52.912;6.940;2023-09-07T08:38:59;8.98;;;5.78;;
57395;SDS011;43222;52.912;6.940;2023-09-07T08:41:26;9.25;;;6.05;;
57395;SDS011;43222;52.912;6.940;2023-09-07T08:43:53;8.13;;;5.63;;
57395;SDS011;43222;52.912;6.940;2023-09-07T08:46:20;9.60;;;5.75;;
57395;SDS011;43222;52.912;6.940;2023-09-07T08:48:46;9.48;;;5.63;;
57395;SDS011;43222;52.912;6.940;2023-09-07T08:51:14;8.40;;;5.10;;
57395;SDS011;43222;52.912;6.940;2023-09-07T08:53:40;8.30;;;5.60;;
57395;SDS011;43222;52.912;6.940;2023-09-07T08:56:11;9.63;;;5.43;;
57395;SDS011;43222;52.912;6.940;2023-09-07T08:58:37;7.75;;;5.10;;
57395;SDS011;43222;52.912;6.940;2023-09-07T09:01:04;9.77;;;5.20;;
57395;SDS011;43222;52.912;6.940;2023-09-07T09:03:30;7.70;;;5.38;;
57395;SDS011;43222;52.912;6.940;2023-09-07T09:05:56;7.63;;;4.78;;
57395;SDS011;43222;52.912;6.940;2023-09-07T09:08:26;9.25;;;5.22;;
57395;SDS011;43222;52.912;6.940;2023-09-07T09:10:58;8.63;;;5.70;;
57395;SDS011;43222;52.912;6.940;2023-09-07T09:13:29;8.70;;;5.00;;
57395;SDS011;43222;52.912;6.940;2023-09-07T09:15:55;9.07;;;5.00;;
57395;SDS011;43222;52.912;6.940;2023-09-07T09:18:21;9.10;;;5.18;;
57395;SDS011;43222;52.912;6.940;2023-09-07T09:20:48;9.38;;;4.57;;
57395;SDS011;43222;52.912;6.940;2023-09-07T09:23:14;11.85;;;4.97;;
57395;SDS011;43222;52.912;6.940;2023-09-07T09:25:41;10.30;;;5.32;;
57395;SDS011;43222;52.912;6.940;2023-09-07T09:28:08;7.90;;;4.85;;
57395;SDS011;43222;52.912;6.940;2023-09-07T09:30:35;7.05;;;4.30;;
57395;SDS011;43222;52.912;6.940;2023-09-07T09:33:01;8.30;;;4.75;;
57395;SDS011;43222;52.912;6.940;2023-09-07T09:35:30;8.65;;;5.10;;
57395;SDS011;43222;52.912;6.940;2023-09-07T09:37:59;7.75;;;4.43;;
57395;SDS011;43222;52.912;6.940;2023-09-07T09:40:26;9.00;;;4.72;;
57395;SDS011;43222;52.912;6.940;2023-09-07T09:42:52;9.10;;;4.88;;
57395;SDS011;43222;52.912;6.940;2023-09-07T09:45:20;8.13;;;4.30;;
57395;SDS011;43222;52.912;6.940;2023-09-07T09:47:46;7.47;;;4.40;;
57395;SDS011;43222;52.912;6.940;2023-09-07T09:50:12;9.43;;;5.28;;
57395;SDS011;43222;52.912;6.940;2023-09-07T09:52:38;13.13;;;5.68;;
57395;SDS011;43222;52.912;6.940;2023-09-07T09:55:05;8.05;;;4.65;;
57395;SDS011;43222;52.912;6.940;2023-09-07T09:57:38;8.48;;;4.78;;
57395;SDS011;43222;52.912;6.940;2023-09-07T10:00:04;10.13;;;4.50;;
57395;SDS011;43222;52.912;6.940;2023-09-07T10:05:26;7.85;;;4.25;;
57395;SDS011;43222;52.912;6.940;2023-09-07T10:07:52;9.55;;;4.45;;
57395;SDS011;43222;52.912;6.940;2023-09-07T10:10:19;8.00;;;4.43;;
57395;SDS011;43222;52.912;6.940;2023-09-07T10:12:51;7.88;;;4.50;;
57395;SDS011;43222;52.912;6.940;2023-09-07T10:15:22;8.98;;;4.05;;
57395;SDS011;43222;52.912;6.940;2023-09-07T10:17:48;10.38;;;4.50;;
57395;SDS011;43222;52.912;6.940;2023-09-07T10:20:18;13.43;;;4.40;;
57395;SDS011;43222;52.912;6.940;2023-09-07T10:22:47;15.32;;;6.25;;
57395;SDS011;43222;52.912;6.940;2023-09-07T10:25:22;10.00;;;4.30;;
57395;SDS011;43222;52.912;6.940;2023-09-07T10:27:48;8.07;;;3.85;;
57395;SDS011;43222;52.912;6.940;2023-09-07T10:30:15;6.47;;;3.92;;
57395;SDS011;43222;52.912;6.940;2023-09-07T10:32:44;6.50;;;3.67;;
57395;SDS011;43222;52.912;6.940;2023-09-07T10:35:18;10.98;;;3.80;;
57395;SDS011;43222;52.912;6.940;2023-09-07T10:37:46;7.85;;;3.80;;
57395;SDS011;43222;52.912;6.940;2023-09-07T10:40:13;6.25;;;3.80;;
57395;SDS011;43222;52.912;6.940;2023-09-07T10:42:47;7.63;;;3.67;;
57395;SDS011;43222;52.912;6.940;2023-09-07T10:45:14;8.55;;;3.85;;
57395;SDS011;43222;52.912;6.940;2023-09-07T10:47:44;6.90;;;4.07;;
57395;SDS011;43222;52.912;6.940;2023-09-07T10:50:14;6.72;;;4.07;;
57395;SDS011;43222;52.912;6.940;2023-09-07T10:52:40;6.57;;;4.20;;
57395;SDS011;43222;52.912;6.940;2023-09-07T10:55:07;8.60;;;3.80;;
57395;SDS011;43222;52.912;6.940;2023-09-07T10:57:45;5.78;;;3.53;;
57395;SDS011;43222;52.912;6.940;2023-09-07T11:00:11;8.90;;;4.30;;
57395;SDS011;43222;52.912;6.940;2023-09-07T11:02:38;7.82;;;3.90;;
57395;SDS011;43222;52.912;6.940;2023-09-07T11:05:05;9.63;;;3.92;;
57395;SDS011;43222;52.912;6.940;2023-09-07T11:07:31;7.38;;;3.92;;
57395;SDS011;43222;52.912;6.940;2023-09-07T11:09:58;8.30;;;3.60;;
57395;SDS011;43222;52.912;6.940;2023-09-07T11:12:24;8.32;;;4.03;;
57395;SDS011;43222;52.912;6.940;2023-09-07T11:14:50;8.57;;;3.92;;
57395;SDS011;43222;52.912;6.940;2023-09-07T11:17:17;9.45;;;4.07;;
57395;SDS011;43222;52.912;6.940;2023-09-07T11:19:43;5.95;;;3.75;;
57395;SDS011;43222;52.912;6.940;2023-09-07T11:22:09;8.15;;;4.20;;
57395;SDS011;43222;52.912;6.940;2023-09-07T11:24:36;8.38;;;4.00;;
57395;SDS011;43222;52.912;6.940;2023-09-07T11:27:05;8.95;;;4.03;;
57395;SDS011;43222;52.912;6.940;2023-09-07T11:29:34;8.00;;;3.65;;
57395;SDS011;43222;52.912;6.940;2023-09-07T11:32:09;5.82;;;3.60;;
57395;SDS011;43222;52.912;6.940;2023-09-07T11:34:46;7.05;;;3.60;;
57395;SDS011;43222;52.912;6.940;2023-09-07T11:37:13;8.45;;;3.83;;
57395;SDS011;43222;52.912;6.940;2023-09-07T11:39:39;8.02;;;4.15;;
57395;SDS011;43222;52.912;6.940;2023-09-07T11:42:05;8.32;;;4.15;;
57395;SDS011;43222;52.912;6.940;2023-09-07T11:44:31;9.60;;;3.88;;
57395;SDS011;43222;52.912;6.940;2023-09-07T11:46:57;9.35;;;4.03;;
57395;SDS011;43222;52.912;6.940;2023-09-07T11:49:24;7.05;;;3.90;;
57395;SDS011;43222;52.912;6.940;2023-09-07T11:51:50;7.45;;;4.00;;
57395;SDS011;43222;52.912;6.940;2023-09-07T11:54:16;8.32;;;4.10;;
57395;SDS011;43222;52.912;6.940;2023-09-07T11:56:42;8.52;;;4.40;;
57395;SDS011;43222;52.912;6.940;2023-09-07T11:59:10;8.35;;;3.80;;
57395;SDS011;43222;52.912;6.940;2023-09-07T12:01:36;8.50;;;4.00;;
57395;SDS011;43222;52.912;6.940;2023-09-07T12:04:04;10.05;;;4.38;;
57395;SDS011;43222;52.912;6.940;2023-09-07T12:06:31;7.25;;;3.75;;
57395;SDS011;43222;52.912;6.940;2023-09-07T12:09:01;7.63;;;4.18;;
57395;SDS011;43222;52.912;6.940;2023-09-07T12:11:28;7.78;;;3.80;;
57395;SDS011;43222;52.912;6.940;2023-09-07T12:13:55;6.97;;;3.60;;
57395;SDS011;43222;52.912;6.940;2023-09-07T12:16:22;7.07;;;3.92;;
57395;SDS011;43222;52.912;6.940;2023-09-07T12:18:48;8.50;;;3.65;;
57395;SDS011;43222;52.912;6.940;2023-09-07T12:21:14;7.05;;;3.65;;
57395;SDS011;43222;52.912;6.940;2023-09-07T12:23:40;11.18;;;3.75;;
57395;SDS011;43222;52.912;6.940;2023-09-07T12:26:06;9.90;;;3.97;;
57395;SDS011;43222;52.912;6.940;2023-09-07T12:28:34;11.77;;;4.20;;
57395;SDS011;43222;52.912;6.940;2023-09-07T12:31:01;8.43;;;3.97;;
57395;SDS011;43222;52.912;6.940;2023-09-07T12:33:27;7.65;;;3.70;;
57395;SDS011;43222;52.912;6.940;2023-09-07T12:35:55;8.88;;;3.70;;
57395;SDS011;43222;52.912;6.940;2023-09-07T12:38:21;7.97;;;3.80;;
57395;SDS011;43222;52.912;6.940;2023-09-07T12:40:52;8.80;;;3.65;;
57395;SDS011;43222;52.912;6.940;2023-09-07T12:43:18;7.85;;;3.83;;
57395;SDS011;43222;52.912;6.940;2023-09-07T12:45:45;11.50;;;3.78;;
57395;SDS011;43222;52.912;6.940;2023-09-07T12:48:11;6.35;;;3.80;;
57395;SDS011;43222;52.912;6.940;2023-09-07T12:50:37;7.22;;;3.67;;
57395;SDS011;43222;52.912;6.940;2023-09-07T12:53:08;6.40;;;3.63;;
57395;SDS011;43222;52.912;6.940;2023-09-07T12:55:34;6.03;;;3.78;;
57395;SDS011;43222;52.912;6.940;2023-09-07T12:58:00;7.72;;;3.65;;
57395;SDS011;43222;52.912;6.940;2023-09-07T13:00:27;9.35;;;3.60;;
57395;SDS011;43222;52.912;6.940;2023-09-07T13:02:54;6.45;;;3.72;;
57395;SDS011;43222;52.912;6.940;2023-09-07T13:05:21;10.15;;;3.78;;
57395;SDS011;43222;52.912;6.940;2023-09-07T13:07:47;6.38;;;3.60;;
57395;SDS011;43222;52.912;6.940;2023-09-07T13:10:13;6.38;;;3.60;;
57395;SDS011;43222;52.912;6.940;2023-09-07T13:12:39;8.05;;;3.75;;
57395;SDS011;43222;52.912;6.940;2023-09-07T13:15:06;8.43;;;3.75;;
57395;SDS011;43222;52.912;6.940;2023-09-07T13:17:32;7.22;;;3.53;;
57395;SDS011;43222;52.912;6.940;2023-09-07T13:20:01;7.47;;;3.78;;
57395;SDS011;43222;52.912;6.940;2023-09-07T13:22:27;7.30;;;3.90;;
57395;SDS011;43222;52.912;6.940;2023-09-07T13:24:53;6.97;;;3.80;;
57395;SDS011;43222;52.912;6.940;2023-09-07T13:27:19;7.03;;;3.70;;
57395;SDS011;43222;52.912;6.940;2023-09-07T13:29:45;10.32;;;4.22;;
57395;SDS011;43222;52.912;6.940;2023-09-07T13:32:11;7.28;;;3.83;;
57395;SDS011;43222;52.912;6.940;2023-09-07T13:34:38;8.02;;;3.53;;
57395;SDS011;43222;52.912;6.940;2023-09-07T13:37:04;8.05;;;3.63;;
57395;SDS011;43222;52.912;6.940;2023-09-07T13:39:30;7.10;;;3.40;;
57395;SDS011;43222;52.912;6.940;2023-09-07T13:41:56;9.25;;;3.60;;
57395;SDS011;43222;52.912;6.940;2023-09-07T13:44:22;6.85;;;3.97;;
57395;SDS011;43222;52.912;6.940;2023-09-07T13:46:48;8.77;;;4.13;;
57395;SDS011;43222;52.912;6.940;2023-09-07T13:49:14;7.65;;;4.20;;
57395;SDS011;43222;52.912;6.940;2023-09-07T13:51:40;6.95;;;4.22;;
57395;SDS011;43222;52.912;6.940;2023-09-07T13:54:07;7.88;;;3.92;;
57395;SDS011;43222;52.912;6.940;2023-09-07T13:56:33;7.53;;;3.60;;
57395;SDS011;43222;52.912;6.940;2023-09-07T13:59:01;9.20;;;4.45;;
57395;SDS011;43222;52.912;6.940;2023-09-07T14:01:27;6.13;;;4.20;;
57395;SDS011;43222;52.912;6.940;2023-09-07T14:03:53;6.60;;;4.15;;
57395;SDS011;43222;52.912;6.940;2023-09-07T14:06:19;8.15;;;3.75;;
57395;SDS011;43222;52.912;6.940;2023-09-07T14:08:48;8.48;;;4.00;;
57395;SDS011;43222;52.912;6.940;2023-09-07T14:11:16;9.43;;;4.00;;
57395;SDS011;43222;52.912;6.940;2023-09-07T14:13:42;6.35;;;4.10;;
57395;SDS011;43222;52.912;6.940;2023-09-07T14:16:08;7.63;;;3.83;;
57395;SDS011;43222;52.912;6.940;2023-09-07T14:18:37;6.78;;;3.72;;
57395;SDS011;43222;52.912;6.940;2023-09-07T14:21:03;6.30;;;3.60;;
57395;SDS011;43222;52.912;6.940;2023-09-07T14:23:29;7.32;;;4.00;;
57395;SDS011;43222;52.912;6.940;2023-09-07T14:25:55;6.70;;;3.78;;
57395;SDS011;43222;52.912;6.940;2023-09-07T14:28:22;7.45;;;3.80;;
57395;SDS011;43222;52.912;6.940;2023-09-07T14:30:48;8.07;;;3.70;;
57395;SDS011;43222;52.912;6.940;2023-09-07T14:33:14;8.55;;;4.00;;
57395;SDS011;43222;52.912;6.940;2023-09-07T14:35:40;10.43;;;3.80;;
57395;SDS011;43222;52.912;6.940;2023-09-07T14:38:06;7.90;;;3.60;;
57395;SDS011;43222;52.912;6.940;2023-09-07T14:40:32;8.45;;;3.65;;
57395;SDS011;43222;52.912;6.940;2023-09-07T14:42:58;7.43;;;3.47;;